Terminal Aerodrome Forecast
Issued by NWS

Home | Current Version | Previous Version | Text Only | Print | Product List | Glossary On
Versions: 1 2 3 4 5 6 7 8 9 10 11 12 13 14 15 16 17 18 19 20 21
973
FTUS42 KMLB 191915 AAA
TAFFPR
TAF AMD
KFPR 191915Z 1919/2018 04009G16KT P6SM VCSH SCT035 BKN045 BKN060
      TEMPO 1919/1920 4SM SHRA BR BKN025
     FM200200 04003KT P6SM SKC
     FM200900 VRB02KT 5SM BR FEW008
     FM201400 02006KT P6SM SCT025
     FM201600 06008KT P6SM SCT035=

USA.gov is the U.S. government's official web portal to all federal, state and local government web resources and services.